sensor_id;sensor_type;location;lat;lon;timestamp;temperature;humidity
13600;DHT22;6871;51.34740610;4.31323160;2023-05-24T00:02:23;20.00;78.20
13600;DHT22;6871;51.34740610;4.31323160;2023-05-24T00:05:17;20.00;78.50
13600;DHT22;6871;51.34740610;4.31323160;2023-05-24T00:10:56;20.00;78.40
13600;DHT22;6871;51.34740610;4.31323160;2023-05-24T00:13:26;20.00;78.40
13600;DHT22;6871;51.34740610;4.31323160;2023-05-24T00:16:13;20.00;78.20
13600;DHT22;6871;51.34740610;4.31323160;2023-05-24T00:18:44;20.00;78.40
13600;DHT22;6871;51.34740610;4.31323160;2023-05-24T00:21:16;20.00;78.40
13600;DHT22;6871;51.34740610;4.31323160;2023-05-24T00:27:17;20.00;78.30
13600;DHT22;6871;51.34740610;4.31323160;2023-05-24T00:29:55;20.00;78.20
13600;DHT22;6871;51.34740610;4.31323160;2023-05-24T00:49:01;19.90;78.20
13600;DHT22;6871;51.34740610;4.31323160;2023-05-24T00:55:21;19.90;78.60
13600;DHT22;6871;51.34740610;4.31323160;2023-05-24T00:57:55;19.90;78.60
13600;DHT22;6871;51.34740610;4.31323160;2023-05-24T01:00:54;19.90;78.40
13600;DHT22;6871;51.34740610;4.31323160;2023-05-24T01:03:28;19.90;78.40
13600;DHT22;6871;51.34740610;4.31323160;2023-05-24T01:09:33;19.90;78.20
13600;DHT22;6871;51.34740610;4.31323160;2023-05-24T02:16:38;19.60;77.80
13600;DHT22;6871;51.34740610;4.31323160;2023-05-24T02:43:22;19.50;77.90
13600;DHT22;6871;51.34740610;4.31323160;2023-05-24T02:49:39;19.50;77.20
13600;DHT22;6871;51.34740610;4.31323160;2023-05-24T02:52:54;19.50;77.30
13600;DHT22;6871;51.34740610;4.31323160;2023-05-24T02:55:53;19.50;77.40
13600;DHT22;6871;51.34740610;4.31323160;2023-05-24T04:55:54;19.10;76.30
13600;DHT22;6871;51.34740610;4.31323160;2023-05-24T04:59:04;19.10;76.30
13600;DHT22;6871;51.34740610;4.31323160;2023-05-24T05:02:12;19.10;76.40
13600;DHT22;6871;51.34740610;4.31323160;2023-05-24T05:04:50;19.10;76.50
13600;DHT22;6871;51.34740610;4.31323160;2023-05-24T05:07:23;19.10;76.40
13600;DHT22;6871;51.34740610;4.31323160;2023-05-24T05:13:37;19.10;76.30
13600;DHT22;6871;51.34740610;4.31323160;2023-05-24T05:16:10;19.10;76.30
13600;DHT22;6871;51.34740610;4.31323160;2023-05-24T05:18:40;19.10;76.50
13600;DHT22;6871;51.34740610;4.31323160;2023-05-24T05:21:18;19.10;76.50
13600;DHT22;6871;51.34740610;4.31323160;2023-05-24T05:37:23;19.10;76.70
13600;DHT22;6871;51.34740610;4.31323160;2023-05-24T05:40:01;19.10;76.90
13600;DHT22;6871;51.34740610;4.31323160;2023-05-24T05:42:40;19.10;77.00
13600;DHT22;6871;51.34740610;4.31323160;2023-05-24T05:45:13;19.10;77.00
13600;DHT22;6871;51.34740610;4.31323160;2023-05-24T05:47:44;19.10;76.90
13600;DHT22;6871;51.34740610;4.31323160;2023-05-24T05:53:50;19.10;76.90
13600;DHT22;6871;51.34740610;4.31323160;2023-05-24T05:56:45;19.10;77.10
13600;DHT22;6871;51.34740610;4.31323160;2023-05-24T06:19:24;19.00;77.30
13600;DHT22;6871;51.34740610;4.31323160;2023-05-24T06:22:05;19.00;77.50
13600;DHT22;6871;51.34740610;4.31323160;2023-05-24T06:24:45;19.00;77.60
13600;DHT22;6871;51.34740610;4.31323160;2023-05-24T07:03:34;19.10;78.50
13600;DHT22;6871;51.34740610;4.31323160;2023-05-24T08:00:40;18.90;76.70
13600;DHT22;6871;51.34740610;4.31323160;2023-05-24T08:19:45;19.00;76.70
13600;DHT22;6871;51.34740610;4.31323160;2023-05-24T08:25:40;19.00;77.40
13600;DHT22;6871;51.34740610;4.31323160;2023-05-24T08:28:38;19.10;77.10
13600;DHT22;6871;51.34740610;4.31323160;2023-05-24T08:34:55;19.10;77.40
13600;DHT22;6871;51.34740610;4.31323160;2023-05-24T08:37:31;19.10;77.20
13600;DHT22;6871;51.34740610;4.31323160;2023-05-24T08:46:57;19.20;77.30
13600;DHT22;6871;51.34740610;4.31323160;2023-05-24T08:49:35;19.20;77.50
13600;DHT22;6871;51.34740610;4.31323160;2023-05-24T08:52:19;19.20;77.50
13600;DHT22;6871;51.34740610;4.31323160;2023-05-24T08:54:54;19.30;77.60
13600;DHT22;6871;51.34740610;4.31323160;2023-05-24T08:57:27;19.30;77.40
13600;DHT22;6871;51.34740610;4.31323160;2023-05-24T08:59:58;19.40;77.40
13600;DHT22;6871;51.34740610;4.31323160;2023-05-24T09:02:34;19.40;77.40
13600;DHT22;6871;51.34740610;4.31323160;2023-05-24T09:05:19;19.40;77.50
13600;DHT22;6871;51.34740610;4.31323160;2023-05-24T09:11:41;19.40;77.50
13600;DHT22;6871;51.34740610;4.31323160;2023-05-24T09:14:11;19.50;77.40
13600;DHT22;6871;51.34740610;4.31323160;2023-05-24T09:17:00;19.40;77.40
13600;DHT22;6871;51.34740610;4.31323160;2023-05-24T09:19:57;19.40;77.70
13600;DHT22;6871;51.34740610;4.31323160;2023-05-24T09:25:18;19.60;77.70
13600;DHT22;6871;51.34740610;4.31323160;2023-05-24T09:34:51;19.60;77.70
13600;DHT22;6871;51.34740610;4.31323160;2023-05-24T09:37:31;19.60;77.60
13600;DHT22;6871;51.34740610;4.31323160;2023-05-24T09:43:14;19.50;77.60
13600;DHT22;6871;51.34740610;4.31323160;2023-05-24T09:45:45;19.60;77.80
13600;DHT22;6871;51.34740610;4.31323160;2023-05-24T09:51:42;19.70;78.20
13600;DHT22;6871;51.34740610;4.31323160;2023-05-24T09:54:19;19.70;77.60
13600;DHT22;6871;51.34740610;4.31323160;2023-05-24T09:56:51;19.70;77.60
13600;DHT22;6871;51.34740610;4.31323160;2023-05-24T09:59:20;19.70;77.70
13600;DHT22;6871;51.34740610;4.31323160;2023-05-24T10:01:50;19.70;77.80
13600;DHT22;6871;51.34740610;4.31323160;2023-05-24T10:08:08;19.60;78.00
13600;DHT22;6871;51.34740610;4.31323160;2023-05-24T10:10:39;19.50;79.10
13600;DHT22;6871;51.34740610;4.31323160;2023-05-24T10:13:29;19.50;79.30
13600;DHT22;6871;51.34740610;4.31323160;2023-05-24T10:16:02;19.60;78.40
13600;DHT22;6871;51.34740610;4.31323160;2023-05-24T10:18:32;19.60;78.90
13600;DHT22;6871;51.34740610;4.31323160;2023-05-24T10:24:28;19.90;78.20
13600;DHT22;6871;51.34740610;4.31323160;2023-05-24T10:30:34;19.90;78.20
13600;DHT22;6871;51.34740610;4.31323160;2023-05-24T10:33:15;20.00;77.70
13600;DHT22;6871;51.34740610;4.31323160;2023-05-24T10:44:27;20.00;77.80
13600;DHT22;6871;51.34740610;4.31323160;2023-05-24T10:50:43;20.00;77.60
13600;DHT22;6871;51.34740610;4.31323160;2023-05-24T10:53:20;20.00;77.50
13600;DHT22;6871;51.34740610;4.31323160;2023-05-24T10:56:09;20.00;77.60
13600;DHT22;6871;51.34740610;4.31323160;2023-05-24T10:59:04;20.00;77.70
13600;DHT22;6871;51.34740610;4.31323160;2023-05-24T11:01:36;20.00;77.80
13600;DHT22;6871;51.34740610;4.31323160;2023-05-24T11:20:58;20.10;78.30
13600;DHT22;6871;51.34740610;4.31323160;2023-05-24T11:23:31;20.10;78.40
13600;DHT22;6871;51.34740610;4.31323160;2023-05-24T11:26:00;20.20;78.50
13600;DHT22;6871;51.34740610;4.31323160;2023-05-24T11:28:30;20.20;78.20
13600;DHT22;6871;51.34740610;4.31323160;2023-05-24T11:31:15;20.20;78.10
13600;DHT22;6871;51.34740610;4.31323160;2023-05-24T11:37:08;20.30;78.30
13600;DHT22;6871;51.34740610;4.31323160;2023-05-24T11:45:32;20.40;78.50
13600;DHT22;6871;51.34740610;4.31323160;2023-05-24T11:48:05;20.30;77.70
13600;DHT22;6871;51.34740610;4.31323160;2023-05-24T11:50:38;20.30;77.00
13600;DHT22;6871;51.34740610;4.31323160;2023-05-24T11:53:10;20.30;77.10
13600;DHT22;6871;51.34740610;4.31323160;2023-05-24T11:55:41;20.30;77.30
13600;DHT22;6871;51.34740610;4.31323160;2023-05-24T11:58:17;20.30;76.80
13600;DHT22;6871;51.34740610;4.31323160;2023-05-24T12:00:50;20.30;76.70
13600;DHT22;6871;51.34740610;4.31323160;2023-05-24T12:04:10;20.20;77.30
13600;DHT22;6871;51.34740610;4.31323160;2023-05-24T12:06:53;20.30;78.00
13600;DHT22;6871;51.34740610;4.31323160;2023-05-24T12:09:24;20.40;77.00
13600;DHT22;6871;51.34740610;4.31323160;2023-05-24T12:11:57;20.40;76.70
13600;DHT22;6871;51.34740610;4.31323160;2023-05-24T12:14:36;20.40;77.40
13600;DHT22;6871;51.34740610;4.31323160;2023-05-24T12:17:23;20.50;77.40
13600;DHT22;6871;51.34740610;4.31323160;2023-05-24T12:19:56;20.50;77.50
13600;DHT22;6871;51.34740610;4.31323160;2023-05-24T12:22:29;20.60;77.40
13600;DHT22;6871;51.34740610;4.31323160;2023-05-24T12:32:10;20.60;77.40
13600;DHT22;6871;51.34740610;4.31323160;2023-05-24T12:35:16;20.50;76.40
13600;DHT22;6871;51.34740610;4.31323160;2023-05-24T12:38:07;20.50;77.30
13600;DHT22;6871;51.34740610;4.31323160;2023-05-24T12:40:48;20.60;78.00
13600;DHT22;6871;51.34740610;4.31323160;2023-05-24T12:43:19;20.50;76.50
13600;DHT22;6871;51.34740610;4.31323160;2023-05-24T12:45:48;20.40;76.50
13600;DHT22;6871;51.34740610;4.31323160;2023-05-24T12:48:18;20.50;77.40
13600;DHT22;6871;51.34740610;4.31323160;2023-05-24T12:50:49;20.50;77.20
13600;DHT22;6871;51.34740610;4.31323160;2023-05-24T12:53:18;20.50;75.90
13600;DHT22;6871;51.34740610;4.31323160;2023-05-24T12:55:50;20.50;74.50
13600;DHT22;6871;51.34740610;4.31323160;2023-05-24T12:58:21;20.50;75.80
13600;DHT22;6871;51.34740610;4.31323160;2023-05-24T13:00:50;20.60;75.40
13600;DHT22;6871;51.34740610;4.31323160;2023-05-24T13:03:38;20.60;74.90
13600;DHT22;6871;51.34740610;4.31323160;2023-05-24T13:06:07;20.50;74.90
13600;DHT22;6871;51.34740610;4.31323160;2023-05-24T13:08:36;20.40;76.00
13600;DHT22;6871;51.34740610;4.31323160;2023-05-24T13:11:07;20.40;76.50
13600;DHT22;6871;51.34740610;4.31323160;2023-05-24T13:13:37;20.50;76.30
13600;DHT22;6871;51.34740610;4.31323160;2023-05-24T13:16:07;20.50;76.30
13600;DHT22;6871;51.34740610;4.31323160;2023-05-24T13:18:38;20.50;75.90
13600;DHT22;6871;51.34740610;4.31323160;2023-05-24T13:21:07;20.50;76.90
13600;DHT22;6871;51.34740610;4.31323160;2023-05-24T13:23:56;20.60;77.10
13600;DHT22;6871;51.34740610;4.31323160;2023-05-24T13:30:17;20.50;76.90
13600;DHT22;6871;51.34740610;4.31323160;2023-05-24T13:32:51;20.50;77.40
13600;DHT22;6871;51.34740610;4.31323160;2023-05-24T13:35:24;20.50;78.00
13600;DHT22;6871;51.34740610;4.31323160;2023-05-24T13:37:58;20.50;78.30
13600;DHT22;6871;51.34740610;4.31323160;2023-05-24T13:40:39;20.50;78.20
13600;DHT22;6871;51.34740610;4.31323160;2023-05-24T13:43:21;20.50;78.40
13600;DHT22;6871;51.34740610;4.31323160;2023-05-24T13:46:08;20.50;78.40
13600;DHT22;6871;51.34740610;4.31323160;2023-05-24T13:48:38;20.60;78.40
13600;DHT22;6871;51.34740610;4.31323160;2023-05-24T13:51:13;20.50;78.10
13600;DHT22;6871;51.34740610;4.31323160;2023-05-24T13:56:43;20.50;78.00
13600;DHT22;6871;51.34740610;4.31323160;2023-05-24T13:59:20;20.60;77.90
13600;DHT22;6871;51.34740610;4.31323160;2023-05-24T14:01:50;20.60;78.10
13600;DHT22;6871;51.34740610;4.31323160;2023-05-24T14:04:21;20.60;77.90
13600;DHT22;6871;51.34740610;4.31323160;2023-05-24T14:07:10;20.50;77.90
13600;DHT22;6871;51.34740610;4.31323160;2023-05-24T14:09:43;20.60;77.90
13600;DHT22;6871;51.34740610;4.31323160;2023-05-24T14:12:14;20.60;77.60
13600;DHT22;6871;51.34740610;4.31323160;2023-05-24T14:14:44;20.60;77.60
13600;DHT22;6871;51.34740610;4.31323160;2023-05-24T14:17:14;20.50;77.50
13600;DHT22;6871;51.34740610;4.31323160;2023-05-24T14:19:44;20.50;78.30
13600;DHT22;6871;51.34740610;4.31323160;2023-05-24T14:22:32;20.60;77.50
13600;DHT22;6871;51.34740610;4.31323160;2023-05-24T14:25:05;20.60;77.90
13600;DHT22;6871;51.34740610;4.31323160;2023-05-24T14:27:36;20.60;77.90
13600;DHT22;6871;51.34740610;4.31323160;2023-05-24T14:30:08;20.50;77.90
13600;DHT22;6871;51.34740610;4.31323160;2023-05-24T14:32:39;20.60;78.20
13600;DHT22;6871;51.34740610;4.31323160;2023-05-24T14:35:10;20.60;78.40
13600;DHT22;6871;51.34740610;4.31323160;2023-05-24T14:37:39;20.50;78.20
13600;DHT22;6871;51.34740610;4.31323160;2023-05-24T14:40:13;20.50;79.20
13600;DHT22;6871;51.34740610;4.31323160;2023-05-24T14:42:43;20.50;78.40
13600;DHT22;6871;51.34740610;4.31323160;2023-05-24T14:45:16;20.50;78.60
13600;DHT22;6871;51.34740610;4.31323160;2023-05-24T14:47:46;20.50;78.60
13600;DHT22;6871;51.34740610;4.31323160;2023-05-24T14:53:40;20.50;78.80
13600;DHT22;6871;51.34740610;4.31323160;2023-05-24T14:56:12;20.50;79.10
13600;DHT22;6871;51.34740610;4.31323160;2023-05-24T14:58:42;20.50;79.00
13600;DHT22;6871;51.34740610;4.31323160;2023-05-24T15:01:13;20.50;79.20
13600;DHT22;6871;51.34740610;4.31323160;2023-05-24T15:03:43;20.50;79.40
13600;DHT22;6871;51.34740610;4.31323160;2023-05-24T15:06:12;20.50;79.60
13600;DHT22;6871;51.34740610;4.31323160;2023-05-24T15:08:42;20.50;79.60
13600;DHT22;6871;51.34740610;4.31323160;2023-05-24T15:11:17;20.50;79.50
13600;DHT22;6871;51.34740610;4.31323160;2023-05-24T15:13:49;20.50;79.30
13600;DHT22;6871;51.34740610;4.31323160;2023-05-24T15:16:32;20.50;79.50
13600;DHT22;6871;51.34740610;4.31323160;2023-05-24T15:22:25;20.50;79.70
13600;DHT22;6871;51.34740610;4.31323160;2023-05-24T15:24:59;20.50;79.80
13600;DHT22;6871;51.34740610;4.31323160;2023-05-24T15:37:39;20.50;80.10
13600;DHT22;6871;51.34740610;4.31323160;2023-05-24T15:40:22;20.50;80.20
13600;DHT22;6871;51.34740610;4.31323160;2023-05-24T15:42:51;20.50;80.00
13600;DHT22;6871;51.34740610;4.31323160;2023-05-24T15:45:21;20.50;80.20
13600;DHT22;6871;51.34740610;4.31323160;2023-05-24T15:47:52;20.50;80.50
13600;DHT22;6871;51.34740610;4.31323160;2023-05-24T15:50:32;20.60;80.40
13600;DHT22;6871;51.34740610;4.31323160;2023-05-24T15:53:02;20.60;80.10
13600;DHT22;6871;51.34740610;4.31323160;2023-05-24T15:55:32;20.60;80.90
13600;DHT22;6871;51.34740610;4.31323160;2023-05-24T15:58:04;20.60;80.00
13600;DHT22;6871;51.34740610;4.31323160;2023-05-24T16:00:34;20.60;80.00
13600;DHT22;6871;51.34740610;4.31323160;2023-05-24T16:03:04;20.60;79.90
13600;DHT22;6871;51.34740610;4.31323160;2023-05-24T16:05:34;20.60;79.50
13600;DHT22;6871;51.34740610;4.31323160;2023-05-24T16:08:05;20.60;79.50
13600;DHT22;6871;51.34740610;4.31323160;2023-05-24T16:10:35;20.60;79.70
13600;DHT22;6871;51.34740610;4.31323160;2023-05-24T16:13:05;20.60;80.60
13600;DHT22;6871;51.34740610;4.31323160;2023-05-24T16:16:11;20.60;79.90
13600;DHT22;6871;51.34740610;4.31323160;2023-05-24T16:18:45;20.60;80.00
13600;DHT22;6871;51.34740610;4.31323160;2023-05-24T16:21:17;20.60;80.10
13600;DHT22;6871;51.34740610;4.31323160;2023-05-24T16:23:47;20.60;80.10
13600;DHT22;6871;51.34740610;4.31323160;2023-05-24T16:26:17;20.60;80.90
13600;DHT22;6871;51.34740610;4.31323160;2023-05-24T16:28:48;20.60;80.10
13600;DHT22;6871;51.34740610;4.31323160;2023-05-24T16:31:22;20.70;80.10
13600;DHT22;6871;51.34740610;4.31323160;2023-05-24T16:33:52;20.60;80.00
13600;DHT22;6871;51.34740610;4.31323160;2023-05-24T16:36:35;20.60;80.30
13600;DHT22;6871;51.34740610;4.31323160;2023-05-24T16:42:28;20.60;80.90
13600;DHT22;6871;51.34740610;4.31323160;2023-05-24T16:55:06;20.60;80.70
13600;DHT22;6871;51.34740610;4.31323160;2023-05-24T16:57:37;20.50;81.20
13600;DHT22;6871;51.34740610;4.31323160;2023-05-24T17:00:10;20.50;81.60
13600;DHT22;6871;51.34740610;4.31323160;2023-05-24T17:02:42;20.50;82.50
13600;DHT22;6871;51.34740610;4.31323160;2023-05-24T17:05:11;20.60;82.00
13600;DHT22;6871;51.34740610;4.31323160;2023-05-24T17:07:41;20.60;81.60
13600;DHT22;6871;51.34740610;4.31323160;2023-05-24T17:10:18;20.60;81.40
13600;DHT22;6871;51.34740610;4.31323160;2023-05-24T17:12:49;20.60;81.70
13600;DHT22;6871;51.34740610;4.31323160;2023-05-24T17:15:19;20.60;81.70
13600;DHT22;6871;51.34740610;4.31323160;2023-05-24T17:17:49;20.60;81.60
13600;DHT22;6871;51.34740610;4.31323160;2023-05-24T17:20:24;20.60;81.60
13600;DHT22;6871;51.34740610;4.31323160;2023-05-24T17:22:54;20.60;81.60
13600;DHT22;6871;51.34740610;4.31323160;2023-05-24T17:25:24;20.60;81.80
13600;DHT22;6871;51.34740610;4.31323160;2023-05-24T17:27:54;20.70;82.00
13600;DHT22;6871;51.34740610;4.31323160;2023-05-24T17:30:25;20.60;82.00
13600;DHT22;6871;51.34740610;4.31323160;2023-05-24T17:32:57;20.70;81.90
13600;DHT22;6871;51.34740610;4.31323160;2023-05-24T17:35:28;20.60;81.70
13600;DHT22;6871;51.34740610;4.31323160;2023-05-24T17:41:22;20.70;81.90
13600;DHT22;6871;51.34740610;4.31323160;2023-05-24T17:43:53;20.60;81.90
13600;DHT22;6871;51.34740610;4.31323160;2023-05-24T17:46:33;20.60;82.00
13600;DHT22;6871;51.34740610;4.31323160;2023-05-24T18:04:53;20.50;82.40
13600;DHT22;6871;51.34740610;4.31323160;2023-05-24T18:07:24;20.50;82.40
13600;DHT22;6871;51.34740610;4.31323160;2023-05-24T18:10:14;20.50;82.60
13600;DHT22;6871;51.34740610;4.31323160;2023-05-24T18:16:12;20.50;82.50
13600;DHT22;6871;51.34740610;4.31323160;2023-05-24T18:22:08;20.50;82.60
13600;DHT22;6871;51.34740610;4.31323160;2023-05-24T18:24:38;20.50;82.80
13600;DHT22;6871;51.34740610;4.31323160;2023-05-24T18:27:08;20.50;82.90
13600;DHT22;6871;51.34740610;4.31323160;2023-05-24T18:33:00;20.50;82.80
13600;DHT22;6871;51.34740610;4.31323160;2023-05-24T18:35:33;20.50;82.90
13600;DHT22;6871;51.34740610;4.31323160;2023-05-24T18:38:05;20.50;82.90
13600;DHT22;6871;51.34740610;4.31323160;2023-05-24T18:40:35;20.50;82.80
13600;DHT22;6871;51.34740610;4.31323160;2023-05-24T18:43:05;20.50;82.90
13600;DHT22;6871;51.34740610;4.31323160;2023-05-24T18:45:35;20.50;82.90
13600;DHT22;6871;51.34740610;4.31323160;2023-05-24T18:48:06;20.50;82.90
13600;DHT22;6871;51.34740610;4.31323160;2023-05-24T18:50:36;20.50;82.60
13600;DHT22;6871;51.34740610;4.31323160;2023-05-24T18:53:07;20.50;82.50
13600;DHT22;6871;51.34740610;4.31323160;2023-05-24T18:55:37;20.50;82.50
13600;DHT22;6871;51.34740610;4.31323160;2023-05-24T18:58:07;20.50;82.60
13600;DHT22;6871;51.34740610;4.31323160;2023-05-24T19:01:00;20.50;82.80
13600;DHT22;6871;51.34740610;4.31323160;2023-05-24T19:03:31;20.50;82.80
13600;DHT22;6871;51.34740610;4.31323160;2023-05-24T19:06:01;20.50;82.90
13600;DHT22;6871;51.34740610;4.31323160;2023-05-24T19:08:30;20.50;82.90
13600;DHT22;6871;51.34740610;4.31323160;2023-05-24T19:11:00;20.50;82.60
13600;DHT22;6871;51.34740610;4.31323160;2023-05-24T19:13:40;20.50;82.60
13600;DHT22;6871;51.34740610;4.31323160;2023-05-24T19:16:11;20.50;82.80
13600;DHT22;6871;51.34740610;4.31323160;2023-05-24T19:18:42;20.50;82.60
13600;DHT22;6871;51.34740610;4.31323160;2023-05-24T19:21:22;20.50;82.70
13600;DHT22;6871;51.34740610;4.31323160;2023-05-24T19:27:15;20.50;82.50
13600;DHT22;6871;51.34740610;4.31323160;2023-05-24T19:29:46;20.50;82.40
13600;DHT22;6871;51.34740610;4.31323160;2023-05-24T19:35:39;20.40;82.50
13600;DHT22;6871;51.34740610;4.31323160;2023-05-24T19:38:09;20.40;82.60
13600;DHT22;6871;51.34740610;4.31323160;2023-05-24T19:40:51;20.40;82.80
13600;DHT22;6871;51.34740610;4.31323160;2023-05-24T19:46:43;20.40;82.60
13600;DHT22;6871;51.34740610;4.31323160;2023-05-24T19:49:14;20.40;82.40
13600;DHT22;6871;51.34740610;4.31323160;2023-05-24T19:51:50;20.40;82.50
13600;DHT22;6871;51.34740610;4.31323160;2023-05-24T19:54:21;20.40;82.40
13600;DHT22;6871;51.34740610;4.31323160;2023-05-24T19:57:02;20.30;82.50
13600;DHT22;6871;51.34740610;4.31323160;2023-05-24T19:59:33;20.40;82.50
13600;DHT22;6871;51.34740610;4.31323160;2023-05-24T20:05:10;20.30;82.10
13600;DHT22;6871;51.34740610;4.31323160;2023-05-24T20:07:42;20.30;82.10
13600;DHT22;6871;51.34740610;4.31323160;2023-05-24T20:10:13;20.30;82.00
13600;DHT22;6871;51.34740610;4.31323160;2023-05-24T20:12:44;20.30;81.90
13600;DHT22;6871;51.34740610;4.31323160;2023-05-24T20:15:16;20.30;82.40
13600;DHT22;6871;51.34740610;4.31323160;2023-05-24T20:17:45;20.30;82.40
13600;DHT22;6871;51.34740610;4.31323160;2023-05-24T20:20:15;20.30;82.30
13600;DHT22;6871;51.34740610;4.31323160;2023-05-24T20:22:45;20.30;81.90
13600;DHT22;6871;51.34740610;4.31323160;2023-05-24T20:25:15;20.30;81.80
13600;DHT22;6871;51.34740610;4.31323160;2023-05-24T20:34:43;20.30;82.10
13600;DHT22;6871;51.34740610;4.31323160;2023-05-24T20:37:28;20.30;82.10
13600;DHT22;6871;51.34740610;4.31323160;2023-05-24T20:39:59;20.20;81.90
13600;DHT22;6871;51.34740610;4.31323160;2023-05-24T20:42:37;20.30;81.90
13600;DHT22;6871;51.34740610;4.31323160;2023-05-24T20:45:09;20.30;81.90
13600;DHT22;6871;51.34740610;4.31323160;2023-05-24T20:47:39;20.30;81.70
13600;DHT22;6871;51.34740610;4.31323160;2023-05-24T20:53:20;20.30;82.00
13600;DHT22;6871;51.34740610;4.31323160;2023-05-24T20:55:51;20.20;81.70
13600;DHT22;6871;51.34740610;4.31323160;2023-05-24T21:10:29;20.20;81.80
13600;DHT22;6871;51.34740610;4.31323160;2023-05-24T21:13:01;20.20;82.10
13600;DHT22;6871;51.34740610;4.31323160;2023-05-24T21:15:30;20.20;81.90
13600;DHT22;6871;51.34740610;4.31323160;2023-05-24T21:18:00;20.20;81.60
13600;DHT22;6871;51.34740610;4.31323160;2023-05-24T21:20:30;20.20;81.50
13600;DHT22;6871;51.34740610;4.31323160;2023-05-24T21:23:00;20.20;81.30
13600;DHT22;6871;51.34740610;4.31323160;2023-05-24T21:25:31;20.20;81.30
13600;DHT22;6871;51.34740610;4.31323160;2023-05-24T21:28:01;20.20;81.30
13600;DHT22;6871;51.34740610;4.31323160;2023-05-24T21:30:55;20.20;81.30
13600;DHT22;6871;51.34740610;4.31323160;2023-05-24T21:33:29;20.20;81.10
13600;DHT22;6871;51.34740610;4.31323160;2023-05-24T21:39:39;20.10;80.40
13600;DHT22;6871;51.34740610;4.31323160;2023-05-24T21:42:12;20.10;80.80
13600;DHT22;6871;51.34740610;4.31323160;2023-05-24T21:44:42;20.10;81.10
13600;DHT22;6871;51.34740610;4.31323160;2023-05-24T21:47:13;20.10;80.90
13600;DHT22;6871;51.34740610;4.31323160;2023-05-24T21:50:04;20.10;80.80
13600;DHT22;6871;51.34740610;4.31323160;2023-05-24T21:52:34;20.10;80.80
